sensor_id;sensor_type;location;lat;lon;timestamp;pressure;altitude;pressure_sealevel;temperature;humidity
41947;BME280;27638;42.184;24.848;2023-06-22T00:01:04;100053.34;;;23.86;83.39
41947;BME280;27638;42.184;24.848;2023-06-22T00:03:30;100057.22;;;23.91;82.44
41947;BME280;27638;42.184;24.848;2023-06-22T00:05:56;100059.81;;;23.97;82.47
41947;BME280;27638;42.184;24.848;2023-06-22T00:08:22;100046.13;;;24.04;81.87
41947;BME280;27638;42.184;24.848;2023-06-22T00:10:47;100053.19;;;24.05;81.79
41947;BME280;27638;42.184;24.848;2023-06-22T00:13:13;100050.16;;;24.01;81.95
41947;BME280;27638;42.184;24.848;2023-06-22T00:15:40;100042.19;;;23.95;82.32
41947;BME280;27638;42.184;24.848;2023-06-22T00:18:07;100059.44;;;24.05;82.11
41947;BME280;27638;42.184;24.848;2023-06-22T00:20:33;100050.63;;;23.98;82.17
41947;BME280;27638;42.184;24.848;2023-06-22T00:23:03;100065.66;;;24.06;82.21
41947;BME280;27638;42.184;24.848;2023-06-22T00:25:37;100061.56;;;24.03;81.99
41947;BME280;27638;42.184;24.848;2023-06-22T00:28:04;100062.78;;;23.84;81.73
41947;BME280;27638;42.184;24.848;2023-06-22T00:30:31;100061.13;;;23.83;82.22
41947;BME280;27638;42.184;24.848;2023-06-22T00:32:57;100071.38;;;23.81;82.79
41947;BME280;27638;42.184;24.848;2023-06-22T00:35:23;100069.16;;;23.78;83.62
41947;BME280;27638;42.184;24.848;2023-06-22T00:37:54;100064.81;;;23.77;84.32
41947;BME280;27638;42.184;24.848;2023-06-22T00:40:25;100072.09;;;23.76;84.62
41947;BME280;27638;42.184;24.848;2023-06-22T00:42:51;100070.56;;;23.80;84.78
41947;BME280;27638;42.184;24.848;2023-06-22T00:45:16;100070.31;;;23.82;84.17
41947;BME280;27638;42.184;24.848;2023-06-22T00:47:42;100068.53;;;23.87;83.39
41947;BME280;27638;42.184;24.848;2023-06-22T00:50:12;100070.56;;;23.80;84.02
41947;BME280;27638;42.184;24.848;2023-06-22T00:52:39;100074.41;;;23.84;83.47
41947;BME280;27638;42.184;24.848;2023-06-22T00:55:11;100071.94;;;23.83;83.42
41947;BME280;27638;42.184;24.848;2023-06-22T00:57:37;100080.06;;;23.83;83.19
41947;BME280;27638;42.184;24.848;2023-06-22T01:00:02;100081.94;;;23.82;83.44
41947;BME280;27638;42.184;24.848;2023-06-22T01:02:31;100082.53;;;23.84;80.63
41947;BME280;27638;42.184;24.848;2023-06-22T01:04:57;100071.28;;;23.76;81.95
41947;BME280;27638;42.184;24.848;2023-06-22T01:07:35;100066.47;;;23.66;84.60
41947;BME280;27638;42.184;24.848;2023-06-22T01:10:13;100075.06;;;23.51;86.03
41947;BME280;27638;42.184;24.848;2023-06-22T01:12:44;100072.75;;;23.55;84.91
41947;BME280;27638;42.184;24.848;2023-06-22T01:15:15;100081.31;;;23.52;83.10
41947;BME280;27638;42.184;24.848;2023-06-22T01:17:45;100072.84;;;23.48;84.67
41947;BME280;27638;42.184;24.848;2023-06-22T01:20:12;100078.25;;;23.48;84.67
41947;BME280;27638;42.184;24.848;2023-06-22T01:31:09;100059.59;;;23.35;84.73
41947;BME280;27638;42.184;24.848;2023-06-22T01:33:37;100066.50;;;23.43;83.78
41947;BME280;27638;42.184;24.848;2023-06-22T01:36:05;100071.06;;;23.54;82.79
41947;BME280;27638;42.184;24.848;2023-06-22T01:38:32;100073.66;;;23.49;82.53
41947;BME280;27638;42.184;24.848;2023-06-22T01:40:59;100071.59;;;23.28;83.70
41947;BME280;27638;42.184;24.848;2023-06-22T01:43:26;100064.31;;;23.16;83.36
41947;BME280;27638;42.184;24.848;2023-06-22T01:45:54;100054.44;;;23.22;82.64
41947;BME280;27638;42.184;24.848;2023-06-22T01:48:20;100057.13;;;23.34;81.63
41947;BME280;27638;42.184;24.848;2023-06-22T01:50:46;100053.03;;;23.31;81.21
41947;BME280;27638;42.184;24.848;2023-06-22T01:53:12;100056.31;;;23.33;80.70
41947;BME280;27638;42.184;24.848;2023-06-22T01:55:38;100052.56;;;23.34;80.91
41947;BME280;27638;42.184;24.848;2023-06-22T01:58:03;100054.09;;;23.30;80.82
41947;BME280;27638;42.184;24.848;2023-06-22T02:00:32;100056.66;;;23.37;80.65
41947;BME280;27638;42.184;24.848;2023-06-22T02:03:05;100053.63;;;23.21;80.95
41947;BME280;27638;42.184;24.848;2023-06-22T02:05:48;100063.03;;;23.19;81.85
41947;BME280;27638;42.184;24.848;2023-06-22T02:08:38;100059.16;;;23.15;81.90
41947;BME280;27638;42.184;24.848;2023-06-22T02:11:06;100056.34;;;22.98;82.66
41947;BME280;27638;42.184;24.848;2023-06-22T02:13:33;100062.34;;;23.00;82.40
41947;BME280;27638;42.184;24.848;2023-06-22T02:16:00;100063.63;;;23.09;82.13
41947;BME280;27638;42.184;24.848;2023-06-22T02:18:26;100056.69;;;23.13;81.85
41947;BME280;27638;42.184;24.848;2023-06-22T02:20:51;100063.16;;;23.12;81.68
41947;BME280;27638;42.184;24.848;2023-06-22T02:23:17;100067.97;;;23.10;81.88
41947;BME280;27638;42.184;24.848;2023-06-22T02:25:43;100064.44;;;23.10;81.98
41947;BME280;27638;42.184;24.848;2023-06-22T02:28:09;100077.84;;;23.05;82.11
41947;BME280;27638;42.184;24.848;2023-06-22T02:30:35;100079.38;;;23.01;82.49
41947;BME280;27638;42.184;24.848;2023-06-22T02:33:00;100076.31;;;22.97;82.32
41947;BME280;27638;42.184;24.848;2023-06-22T02:35:29;100067.84;;;22.93;82.06
41947;BME280;27638;42.184;24.848;2023-06-22T02:38:01;100077.19;;;22.79;82.94
41947;BME280;27638;42.184;24.848;2023-06-22T02:40:28;100080.84;;;22.85;82.79
41947;BME280;27638;42.184;24.848;2023-06-22T02:42:55;100085.66;;;22.83;82.67
41947;BME280;27638;42.184;24.848;2023-06-22T02:45:20;100079.06;;;22.79;82.80
41947;BME280;27638;42.184;24.848;2023-06-22T02:47:46;100082.88;;;22.89;82.17
41947;BME280;27638;42.184;24.848;2023-06-22T02:50:13;100087.00;;;22.92;81.52
41947;BME280;27638;42.184;24.848;2023-06-22T02:52:38;100091.56;;;22.91;81.28
41947;BME280;27638;42.184;24.848;2023-06-22T02:55:05;100093.34;;;22.98;80.72
41947;BME280;27638;42.184;24.848;2023-06-22T02:57:30;100096.28;;;22.96;80.77
41947;BME280;27638;42.184;24.848;2023-06-22T02:59:56;100088.38;;;22.83;81.28
41947;BME280;27638;42.184;24.848;2023-06-22T03:02:21;100096.00;;;22.86;81.67
41947;BME280;27638;42.184;24.848;2023-06-22T03:04:47;100095.88;;;22.81;81.94
41947;BME280;27638;42.184;24.848;2023-06-22T03:07:14;100100.22;;;22.82;81.52
41947;BME280;27638;42.184;24.848;2023-06-22T03:09:40;100099.41;;;22.81;81.20
41947;BME280;27638;42.184;24.848;2023-06-22T03:12:07;100102.22;;;22.86;80.51
41947;BME280;27638;42.184;24.848;2023-06-22T03:14:33;100102.91;;;22.82;80.84
41947;BME280;27638;42.184;24.848;2023-06-22T03:16:58;100101.03;;;22.82;80.88
41947;BME280;27638;42.184;24.848;2023-06-22T03:19:28;100107.78;;;22.91;80.09
41947;BME280;27638;42.184;24.848;2023-06-22T03:21:54;100102.59;;;22.90;79.87
41947;BME280;27638;42.184;24.848;2023-06-22T03:24:20;100111.53;;;22.90;79.00
41947;BME280;27638;42.184;24.848;2023-06-22T03:26:45;100104.81;;;22.81;78.31
41947;BME280;27638;42.184;24.848;2023-06-22T03:29:12;100114.38;;;22.66;79.20
41947;BME280;27638;42.184;24.848;2023-06-22T03:31:37;100121.75;;;22.58;79.77
41947;BME280;27638;42.184;24.848;2023-06-22T03:34:02;100128.47;;;22.68;79.35
41947;BME280;27638;42.184;24.848;2023-06-22T03:36:28;100126.56;;;22.56;80.30
41947;BME280;27638;42.184;24.848;2023-06-22T03:38:53;100126.44;;;22.51;80.80
41947;BME280;27638;42.184;24.848;2023-06-22T03:41:19;100119.38;;;22.50;80.70
41947;BME280;27638;42.184;24.848;2023-06-22T03:43:44;100123.19;;;22.31;81.12
41947;BME280;27638;42.184;24.848;2023-06-22T03:46:10;100126.25;;;22.35;81.17
41947;BME280;27638;42.184;24.848;2023-06-22T03:48:35;100121.00;;;22.40;80.80
41947;BME280;27638;42.184;24.848;2023-06-22T03:51:01;100127.56;;;22.44;81.23
41947;BME280;27638;42.184;24.848;2023-06-22T03:53:28;100122.72;;;22.34;81.67
41947;BME280;27638;42.184;24.848;2023-06-22T03:55:53;100129.22;;;22.45;81.38
41947;BME280;27638;42.184;24.848;2023-06-22T03:58:20;100121.22;;;22.38;81.74
41947;BME280;27638;42.184;24.848;2023-06-22T04:00:47;100118.91;;;22.53;81.27
41947;BME280;27638;42.184;24.848;2023-06-22T04:03:13;100116.47;;;22.63;80.61
41947;BME280;27638;42.184;24.848;2023-06-22T04:05:39;100113.78;;;22.63;79.99
41947;BME280;27638;42.184;24.848;2023-06-22T04:08:05;100117.47;;;22.81;79.43
41947;BME280;27638;42.184;24.848;2023-06-22T04:10:30;100118.22;;;23.00;79.55
41947;BME280;27638;42.184;24.848;2023-06-22T04:12:56;100118.81;;;23.02;79.44
41947;BME280;27638;42.184;24.848;2023-06-22T04:15:21;100125.28;;;23.01;79.29
41947;BME280;27638;42.184;24.848;2023-06-22T04:17:47;100122.22;;;23.09;79.17
41947;BME280;27638;42.184;24.848;2023-06-22T04:20:12;100121.41;;;23.20;77.05
41947;BME280;27638;42.184;24.848;2023-06-22T04:22:38;100127.03;;;23.30;76.23
41947;BME280;27638;42.184;24.848;2023-06-22T04:25:05;100127.84;;;23.42;74.99
41947;BME280;27638;42.184;24.848;2023-06-22T04:27:30;100125.75;;;23.56;74.59
41947;BME280;27638;42.184;24.848;2023-06-22T04:29:57;100122.44;;;23.66;74.24
41947;BME280;27638;42.184;24.848;2023-06-22T04:32:25;100128.63;;;23.78;73.28
41947;BME280;27638;42.184;24.848;2023-06-22T04:34:50;100129.31;;;23.97;72.80
41947;BME280;27638;42.184;24.848;2023-06-22T04:37:17;100136.91;;;24.11;72.24
41947;BME280;27638;42.184;24.848;2023-06-22T04:39:43;100128.16;;;24.21;71.87
41947;BME280;27638;42.184;24.848;2023-06-22T04:42:08;100132.97;;;24.31;71.83
41947;BME280;27638;42.184;24.848;2023-06-22T04:44:34;100131.53;;;24.40;72.08
41947;BME280;27638;42.184;24.848;2023-06-22T04:47:01;100134.97;;;24.52;72.36
41947;BME280;27638;42.184;24.848;2023-06-22T04:49:29;100135.91;;;24.58;71.43
41947;BME280;27638;42.184;24.848;2023-06-22T04:52:03;100142.16;;;24.75;70.45
41947;BME280;27638;42.184;24.848;2023-06-22T04:54:29;100141.50;;;24.84;70.95
41947;BME280;27638;42.184;24.848;2023-06-22T04:57:00;100139.34;;;24.98;72.18
41947;BME280;27638;42.184;24.848;2023-06-22T04:59:30;100124.88;;;25.09;72.34
41947;BME280;27638;42.184;24.848;2023-06-22T05:04:22;100113.53;;;25.51;69.32
41947;BME280;27638;42.184;24.848;2023-06-22T05:06:51;100113.59;;;25.73;68.06
41947;BME280;27638;42.184;24.848;2023-06-22T05:09:17;100115.28;;;25.79;66.72
41947;BME280;27638;42.184;24.848;2023-06-22T05:11:44;100125.50;;;25.94;66.79
41947;BME280;27638;42.184;24.848;2023-06-22T05:14:09;100116.53;;;26.15;65.98
41947;BME280;27638;42.184;24.848;2023-06-22T05:16:36;100126.44;;;26.26;65.14
41947;BME280;27638;42.184;24.848;2023-06-22T05:19:01;100123.69;;;26.48;65.51
41947;BME280;27638;42.184;24.848;2023-06-22T05:21:29;100123.88;;;26.68;64.50
41947;BME280;27638;42.184;24.848;2023-06-22T05:23:55;100119.72;;;26.93;63.60
41947;BME280;27638;42.184;24.848;2023-06-22T05:26:25;100114.75;;;26.85;62.80
41947;BME280;27638;42.184;24.848;2023-06-22T05:28:51;100113.56;;;27.02;62.54
41947;BME280;27638;42.184;24.848;2023-06-22T05:31:16;100122.88;;;27.07;61.52
41947;BME280;27638;42.184;24.848;2023-06-22T05:33:43;100126.19;;;27.14;61.82
41947;BME280;27638;42.184;24.848;2023-06-22T05:36:09;100122.72;;;27.28;61.47
41947;BME280;27638;42.184;24.848;2023-06-22T05:38:36;100126.91;;;27.46;61.26
41947;BME280;27638;42.184;24.848;2023-06-22T05:41:01;100119.88;;;27.50;60.08
41947;BME280;27638;42.184;24.848;2023-06-22T05:43:27;100124.88;;;27.69;60.27
41947;BME280;27638;42.184;24.848;2023-06-22T05:45:52;100123.03;;;27.84;58.63
41947;BME280;27638;42.184;24.848;2023-06-22T05:48:17;100112.47;;;27.98;58.02
41947;BME280;27638;42.184;24.848;2023-06-22T05:50:43;100115.13;;;27.78;58.12
41947;BME280;27638;42.184;24.848;2023-06-22T05:53:08;100113.78;;;27.80;57.57
41947;BME280;27638;42.184;24.848;2023-06-22T05:55:34;100115.72;;;27.95;56.42
41947;BME280;27638;42.184;24.848;2023-06-22T05:57:59;100118.53;;;28.10;55.88
41947;BME280;27638;42.184;24.848;2023-06-22T06:00:25;100112.28;;;28.20;54.82
41947;BME280;27638;42.184;24.848;2023-06-22T06:02:50;100106.88;;;28.30;55.28
41947;BME280;27638;42.184;24.848;2023-06-22T06:05:16;100110.44;;;28.46;54.69
41947;BME280;27638;42.184;24.848;2023-06-22T06:07:42;100114.53;;;28.69;54.88
41947;BME280;27638;42.184;24.848;2023-06-22T06:10:09;100112.91;;;28.68;53.12
41947;BME280;27638;42.184;24.848;2023-06-22T06:12:34;100124.63;;;28.78;52.15
41947;BME280;27638;42.184;24.848;2023-06-22T06:15:00;100117.56;;;28.87;52.25
41947;BME280;27638;42.184;24.848;2023-06-22T06:17:25;100109.38;;;28.87;53.28
41947;BME280;27638;42.184;24.848;2023-06-22T06:19:51;100103.41;;;28.85;53.42
41947;BME280;27638;42.184;24.848;2023-06-22T06:22:16;100106.38;;;28.74;53.19
41947;BME280;27638;42.184;24.848;2023-06-22T06:24:42;100107.47;;;28.93;51.88
41947;BME280;27638;42.184;24.848;2023-06-22T06:27:07;100107.72;;;29.07;52.66
41947;BME280;27638;42.184;24.848;2023-06-22T06:29:33;100101.75;;;28.95;50.12
41947;BME280;27638;42.184;24.848;2023-06-22T06:31:58;100103.63;;;29.09;50.41
41947;BME280;27638;42.184;24.848;2023-06-22T06:34:24;100110.41;;;29.37;49.67
41947;BME280;27638;42.184;24.848;2023-06-22T06:36:49;100103.03;;;29.53;49.52
41947;BME280;27638;42.184;24.848;2023-06-22T06:39:15;100109.75;;;29.76;50.87
41947;BME280;27638;42.184;24.848;2023-06-22T06:41:41;100101.47;;;30.01;48.60
41947;BME280;27638;42.184;24.848;2023-06-22T06:44:06;100105.25;;;30.10;47.81
41947;BME280;27638;42.184;24.848;2023-06-22T06:46:32;100103.28;;;30.26;47.19
41947;BME280;27638;42.184;24.848;2023-06-22T06:48:57;100110.56;;;30.36;46.00
41947;BME280;27638;42.184;24.848;2023-06-22T06:51:23;100101.22;;;30.47;44.73
41947;BME280;27638;42.184;24.848;2023-06-22T06:53:49;100103.28;;;30.65;45.80
41947;BME280;27638;42.184;24.848;2023-06-22T06:56:15;100102.09;;;30.76;45.94
41947;BME280;27638;42.184;24.848;2023-06-22T06:58:43;100094.84;;;30.91;45.52
41947;BME280;27638;42.184;24.848;2023-06-22T07:01:11;100093.22;;;30.90;44.91
41947;BME280;27638;42.184;24.848;2023-06-22T07:03:37;100090.28;;;30.81;44.63
41947;BME280;27638;42.184;24.848;2023-06-22T07:06:02;100089.38;;;31.20;43.97
41947;BME280;27638;42.184;24.848;2023-06-22T07:08:28;100096.94;;;31.33;43.35
41947;BME280;27638;42.184;24.848;2023-06-22T07:10:54;100091.47;;;31.33;42.74
41947;BME280;27638;42.184;24.848;2023-06-22T07:13:19;100084.50;;;31.64;43.55
41947;BME280;27638;42.184;24.848;2023-06-22T07:15:44;100082.25;;;31.71;42.99
41947;BME280;27638;42.184;24.848;2023-06-22T07:18:10;100087.25;;;31.88;42.14
41947;BME280;27638;42.184;24.848;2023-06-22T07:20:35;100097.91;;;31.90;41.92
41947;BME280;27638;42.184;24.848;2023-06-22T07:23:01;100091.97;;;31.83;40.63
41947;BME280;27638;42.184;24.848;2023-06-22T07:25:26;100092.56;;;31.80;40.94
41947;BME280;27638;42.184;24.848;2023-06-22T07:30:28;100094.88;;;32.10;41.64
41947;BME280;27638;42.184;24.848;2023-06-22T07:32:53;100090.19;;;32.34;40.11
41947;BME280;27638;42.184;24.848;2023-06-22T07:35:19;100091.19;;;32.57;39.72
41947;BME280;27638;42.184;24.848;2023-06-22T07:37:45;100105.03;;;32.66;38.62
41947;BME280;27638;42.184;24.848;2023-06-22T07:40:11;100105.97;;;32.75;39.49
41947;BME280;27638;42.184;24.848;2023-06-22T07:42:37;100100.25;;;32.39;39.12
41947;BME280;27638;42.184;24.848;2023-06-22T07:45:03;100101.69;;;32.13;39.36
41947;BME280;27638;42.184;24.848;2023-06-22T07:47:29;100091.44;;;31.81;40.86
41947;BME280;27638;42.184;24.848;2023-06-22T07:49:57;100094.31;;;31.70;41.06
41947;BME280;27638;42.184;24.848;2023-06-22T07:52:24;100092.03;;;31.78;41.34
41947;BME280;27638;42.184;24.848;2023-06-22T07:54:50;100089.38;;;31.91;40.02
41947;BME280;27638;42.184;24.848;2023-06-22T07:57:16;100092.13;;;32.10;41.33
41947;BME280;27638;42.184;24.848;2023-06-22T07:59:42;100093.53;;;32.31;40.02
41947;BME280;27638;42.184;24.848;2023-06-22T08:02:07;100092.25;;;32.43;40.78
41947;BME280;27638;42.184;24.848;2023-06-22T08:04:34;100089.03;;;32.54;38.41
41947;BME280;27638;42.184;24.848;2023-06-22T08:07:00;100091.81;;;32.68;37.58
41947;BME280;27638;42.184;24.848;2023-06-22T08:09:28;100089.50;;;32.75;36.94
41947;BME280;27638;42.184;24.848;2023-06-22T08:11:53;100090.72;;;33.01;38.18
41947;BME280;27638;42.184;24.848;2023-06-22T08:14:20;100084.03;;;32.75;37.54
41947;BME280;27638;42.184;24.848;2023-06-22T08:16:46;100085.19;;;32.55;37.89
41947;BME280;27638;42.184;24.848;2023-06-22T08:19:11;100076.41;;;32.40;38.04
41947;BME280;27638;42.184;24.848;2023-06-22T08:21:37;100074.78;;;32.38;37.80
41947;BME280;27638;42.184;24.848;2023-06-22T08:24:03;100072.47;;;32.46;39.00
41947;BME280;27638;42.184;24.848;2023-06-22T08:26:28;100075.03;;;32.56;38.13
41947;BME280;27638;42.184;24.848;2023-06-22T08:28:54;100074.84;;;32.85;38.02
41947;BME280;27638;42.184;24.848;2023-06-22T08:31:19;100076.28;;;32.96;38.74
41947;BME280;27638;42.184;24.848;2023-06-22T08:33:45;100068.97;;;33.05;37.50
41947;BME280;27638;42.184;24.848;2023-06-22T08:36:11;100066.34;;;33.27;37.34
41947;BME280;27638;42.184;24.848;2023-06-22T08:38:38;100060.09;;;33.54;36.85
41947;BME280;27638;42.184;24.848;2023-06-22T08:41:04;100054.56;;;33.68;36.28
41947;BME280;27638;42.184;24.848;2023-06-22T08:43:29;100047.06;;;33.60;35.34
41947;BME280;27638;42.184;24.848;2023-06-22T08:45:55;100051.44;;;33.61;35.48
41947;BME280;27638;42.184;24.848;2023-06-22T08:48:21;100059.03;;;33.78;36.07
41947;BME280;27638;42.184;24.848;2023-06-22T08:50:46;100049.28;;;33.85;34.13
41947;BME280;27638;42.184;24.848;2023-06-22T08:53:11;100049.25;;;33.99;34.42
41947;BME280;27638;42.184;24.848;2023-06-22T08:55:37;100048.44;;;34.21;33.86
41947;BME280;27638;42.184;24.848;2023-06-22T08:58:02;100042.00;;;34.25;31.63
41947;BME280;27638;42.184;24.848;2023-06-22T09:00:28;100050.19;;;34.17;34.86
41947;BME280;27638;42.184;24.848;2023-06-22T09:02:57;100043.88;;;34.16;33.21
41947;BME280;27638;42.184;24.848;2023-06-22T09:05:24;100038.63;;;34.06;32.86
41947;BME280;27638;42.184;24.848;2023-06-22T09:07:51;100047.63;;;33.98;35.55
41947;BME280;27638;42.184;24.848;2023-06-22T09:10:17;100046.09;;;33.92;33.06
41947;BME280;27638;42.184;24.848;2023-06-22T09:12:42;100039.31;;;33.76;33.09
41947;BME280;27638;42.184;24.848;2023-06-22T09:15:08;100035.75;;;33.89;34.48
41947;BME280;27638;42.184;24.848;2023-06-22T09:17:34;100042.50;;;34.05;34.91
41947;BME280;27638;42.184;24.848;2023-06-22T09:20:00;100043.38;;;34.14;34.45
41947;BME280;27638;42.184;24.848;2023-06-22T09:22:28;100037.69;;;34.11;32.14
41947;BME280;27638;42.184;24.848;2023-06-22T09:24:55;100037.50;;;34.07;31.92
41947;BME280;27638;42.184;24.848;2023-06-22T09:27:21;100040.75;;;34.09;30.75
41947;BME280;27638;42.184;24.848;2023-06-22T09:29:47;100031.44;;;33.97;31.74
41947;BME280;27638;42.184;24.848;2023-06-22T09:32:13;100029.75;;;33.87;33.43
41947;BME280;27638;42.184;24.848;2023-06-22T09:34:38;100026.81;;;33.70;33.56
41947;BME280;27638;42.184;24.848;2023-06-22T09:37:04;100024.41;;;33.54;33.33
41947;BME280;27638;42.184;24.848;2023-06-22T09:39:29;100020.25;;;33.29;31.81
41947;BME280;27638;42.184;24.848;2023-06-22T09:41:55;100025.78;;;33.11;33.04
41947;BME280;27638;42.184;24.848;2023-06-22T09:44:20;100026.50;;;33.03;34.41
41947;BME280;27638;42.184;24.848;2023-06-22T09:46:46;100031.38;;;32.92;33.49
41947;BME280;27638;42.184;24.848;2023-06-22T09:49:11;100023.75;;;32.89;34.75
41947;BME280;27638;42.184;24.848;2023-06-22T09:51:37;100022.44;;;32.86;33.70
41947;BME280;27638;42.184;24.848;2023-06-22T09:54:02;100018.06;;;32.85;33.47
41947;BME280;27638;42.184;24.848;2023-06-22T09:56:27;100026.44;;;32.75;31.63
41947;BME280;27638;42.184;24.848;2023-06-22T09:58:54;100021.88;;;32.70;32.63
41947;BME280;27638;42.184;24.848;2023-06-22T10:01:20;100026.41;;;32.61;32.75
41947;BME280;27638;42.184;24.848;2023-06-22T10:03:46;100016.97;;;32.54;33.92
41947;BME280;27638;42.184;24.848;2023-06-22T10:06:11;100018.16;;;32.48;32.92
41947;BME280;27638;42.184;24.848;2023-06-22T10:08:37;100017.94;;;32.44;33.58
41947;BME280;27638;42.184;24.848;2023-06-22T10:11:03;100015.03;;;32.54;33.62
41947;BME280;27638;42.184;24.848;2023-06-22T10:13:29;100017.97;;;32.58;35.06
41947;BME280;27638;42.184;24.848;2023-06-22T10:15:54;100019.41;;;32.55;33.68
41947;BME280;27638;42.184;24.848;2023-06-22T10:18:20;100023.25;;;32.54;31.15
41947;BME280;27638;42.184;24.848;2023-06-22T10:20:48;100017.84;;;32.49;30.82
41947;BME280;27638;42.184;24.848;2023-06-22T10:23:14;100015.31;;;32.53;31.65
41947;BME280;27638;42.184;24.848;2023-06-22T10:25:39;100007.09;;;32.53;31.10
41947;BME280;27638;42.184;24.848;2023-06-22T10:28:05;100010.22;;;32.46;32.53
41947;BME280;27638;42.184;24.848;2023-06-22T10:30:30;100007.28;;;32.43;30.84
41947;BME280;27638;42.184;24.848;2023-06-22T10:32:56;99993.66;;;32.37;32.62
41947;BME280;27638;42.184;24.848;2023-06-22T10:35:22;99999.75;;;32.34;31.37
41947;BME280;27638;42.184;24.848;2023-06-22T10:37:48;99994.66;;;32.28;31.05
41947;BME280;27638;42.184;24.848;2023-06-22T10:40:14;99988.66;;;32.26;33.50
41947;BME280;27638;42.184;24.848;2023-06-22T10:42:41;99983.22;;;32.40;33.46
41947;BME280;27638;42.184;24.848;2023-06-22T10:45:07;99977.56;;;32.50;32.14
41947;BME280;27638;42.184;24.848;2023-06-22T10:47:33;99978.66;;;32.49;31.42
41947;BME280;27638;42.184;24.848;2023-06-22T10:49:59;99974.81;;;32.50;32.14
41947;BME280;27638;42.184;24.848;2023-06-22T10:52:24;99972.06;;;32.50;32.40
41947;BME280;27638;42.184;24.848;2023-06-22T10:54:50;99970.25;;;32.45;31.34
41947;BME280;27638;42.184;24.848;2023-06-22T10:57:15;99958.56;;;32.40;32.09
41947;BME280;27638;42.184;24.848;2023-06-22T10:59:41;99961.00;;;32.41;32.70
41947;BME280;27638;42.184;24.848;2023-06-22T11:02:06;99955.22;;;32.43;32.60
41947;BME280;27638;42.184;24.848;2023-06-22T11:04:32;99952.47;;;32.43;32.69
41947;BME280;27638;42.184;24.848;2023-06-22T11:06:57;99960.91;;;32.46;31.77
41947;BME280;27638;42.184;24.848;2023-06-22T11:09:23;99963.13;;;32.44;32.32
41947;BME280;27638;42.184;24.848;2023-06-22T11:11:50;99963.41;;;32.29;31.52
41947;BME280;27638;42.184;24.848;2023-06-22T11:14:16;99953.31;;;32.24;31.42
41947;BME280;27638;42.184;24.848;2023-06-22T11:16:41;99961.59;;;32.19;32.06
41947;BME280;27638;42.184;24.848;2023-06-22T11:19:07;99951.13;;;32.21;31.75
41947;BME280;27638;42.184;24.848;2023-06-22T11:21:32;99955.78;;;32.26;31.28
41947;BME280;27638;42.184;24.848;2023-06-22T11:23:59;99949.31;;;32.17;31.78
41947;BME280;27638;42.184;24.848;2023-06-22T11:26:25;99952.75;;;32.22;31.09
41947;BME280;27638;42.184;24.848;2023-06-22T11:28:54;99952.44;;;32.29;32.66
41947;BME280;27638;42.184;24.848;2023-06-22T11:31:19;99949.09;;;32.32;32.73
41947;BME280;27638;42.184;24.848;2023-06-22T11:33:45;99947.69;;;32.34;32.47
41947;BME280;27638;42.184;24.848;2023-06-22T11:36:14;99949.31;;;32.35;32.32
41947;BME280;27638;42.184;24.848;2023-06-22T11:38:40;99957.53;;;32.35;32.05
41947;BME280;27638;42.184;24.848;2023-06-22T11:41:09;99957.75;;;32.39;31.75
41947;BME280;27638;42.184;24.848;2023-06-22T11:43:35;99944.34;;;32.37;32.37
41947;BME280;27638;42.184;24.848;2023-06-22T11:46:02;99946.88;;;32.34;33.18
41947;BME280;27638;42.184;24.848;2023-06-22T11:48:28;99948.41;;;32.40;32.60
41947;BME280;27638;42.184;24.848;2023-06-22T11:50:54;99950.03;;;32.41;32.19
41947;BME280;27638;42.184;24.848;2023-06-22T11:53:21;99946.88;;;32.34;33.86
41947;BME280;27638;42.184;24.848;2023-06-22T11:55:47;99942.09;;;32.21;33.56
41947;BME280;27638;42.184;24.848;2023-06-22T11:58:12;99938.25;;;32.22;32.90
41947;BME280;27638;42.184;24.848;2023-06-22T12:00:38;99944.94;;;32.34;35.14
41947;BME280;27638;42.184;24.848;2023-06-22T12:03:04;99939.06;;;32.41;31.83
41947;BME280;27638;42.184;24.848;2023-06-22T12:05:29;99932.38;;;32.47;32.75
41947;BME280;27638;42.184;24.848;2023-06-22T12:07:55;99943.44;;;32.56;32.78
41947;BME280;27638;42.184;24.848;2023-06-22T12:10:22;99935.75;;;32.58;31.59
41947;BME280;27638;42.184;24.848;2023-06-22T12:12:48;99936.84;;;32.57;34.02
41947;BME280;27638;42.184;24.848;2023-06-22T12:15:13;99927.13;;;32.64;32.42
41947;BME280;27638;42.184;24.848;2023-06-22T12:17:39;99922.13;;;32.66;31.83
41947;BME280;27638;42.184;24.848;2023-06-22T12:20:06;99913.59;;;32.68;30.91
41947;BME280;27638;42.184;24.848;2023-06-22T12:22:32;99918.91;;;32.78;31.08
41947;BME280;27638;42.184;24.848;2023-06-22T12:24:57;99913.94;;;32.80;31.85
41947;BME280;27638;42.184;24.848;2023-06-22T12:27:25;99911.47;;;32.65;31.12
41947;BME280;27638;42.184;24.848;2023-06-22T12:29:50;99908.72;;;32.51;32.36
41947;BME280;27638;42.184;24.848;2023-06-22T12:32:16;99911.88;;;32.45;32.69
41947;BME280;27638;42.184;24.848;2023-06-22T12:34:42;99908.00;;;32.46;31.85
41947;BME280;27638;42.184;24.848;2023-06-22T12:37:08;99907.50;;;32.44;33.65
41947;BME280;27638;42.184;24.848;2023-06-22T12:39:34;99913.59;;;32.41;32.65
41947;BME280;27638;42.184;24.848;2023-06-22T12:41:59;99906.28;;;32.36;33.15
41947;BME280;27638;42.184;24.848;2023-06-22T12:44:25;99907.00;;;32.23;34.62
41947;BME280;27638;42.184;24.848;2023-06-22T12:46:50;99906.94;;;31.95;38.17
41947;BME280;27638;42.184;24.848;2023-06-22T12:49:16;99905.41;;;31.70;36.74
41947;BME280;27638;42.184;24.848;2023-06-22T12:51:43;99898.31;;;31.69;34.83